Time;durP1;ratioP1;P1;durP2;ratioP2;P2;SDS_P1;SDS_P2;PMS_P1;PMS_P2;Temp;Humidity;BMP_temperature;BMP_pressure;BME280_temperature;BME280_humidity;BME280_pressure;Samples;Min_cycle;Max_cycle;Signal;HPM_P1;HPM_P2
2022/05/09 00:00:29;;;;;;;;;;;11.90;62.60;;;;;;4899602;28;20165;-82
2022/05/09 00:02:55;;;;;;;;;;;11.80;61.90;;;;;;4911340;28;20069;-82
2022/05/09 00:05:22;;;;;;;;;;;11.70;62.30;;;;;;4939812;22;20243;-81
2022/05/09 00:07:48;;;;;;;;;;;11.60;62.90;;;;;;4924966;28;20131;-81
2022/05/09 00:10:15;;;;;;;;;;;11.60;62.30;;;;;;4900567;28;20607;-81
2022/05/09 00:12:41;;;;;;;;;;;11.60;62.80;;;;;;4895306;28;20193;-81
2022/05/09 00:15:08;;;;;;;;;;;11.50;63.00;;;;;;4898430;28;20152;-81
2022/05/09 00:17:34;;;;;;;;;;;11.40;63.40;;;;;;4887270;28;20216;-81
2022/05/09 00:20:00;;;;;;;;;;;11.40;63.40;;;;;;4883185;28;20240;-79
2022/05/09 00:22:57;;;;;;;;;;;11.50;64.10;;;;;;4876337;28;20198;-79
2022/05/09 00:25:25;;;;;;;;;;;11.50;64.50;;;;;;4880080;28;20230;-78
2022/05/09 00:27:53;;;;;;;;;;;11.50;64.80;;;;;;4893833;28;20189;-78
2022/05/09 00:30:19;;;;;;;;;;;11.50;64.80;;;;;;4893818;28;20168;-77
2022/05/09 00:32:49;;;;;;;;;;;11.50;64.60;;;;;;4897018;28;20342;-78
2022/05/09 00:35:18;;;;;;;;;;;11.50;64.00;;;;;;4895521;28;20247;-78
2022/05/09 00:37:46;;;;;;;;;;;11.50;63.30;;;;;;4883716;28;20079;-78
2022/05/09 00:40:13;;;;;;;;;;;11.50;63.50;;;;;;4885910;28;20615;-79
2022/05/09 00:42:50;;;;;;;;;;;11.40;63.40;;;;;;4892595;28;20061;-78
2022/05/09 00:45:16;;;;;;;;;;;11.50;63.60;;;;;;4892951;28;20326;-79
2022/05/09 00:47:46;;;;;;;;;;;11.30;63.60;;;;;;4889269;28;20178;-79
2022/05/09 00:50:13;;;;;;;;;;;11.20;64.00;;;;;;4886193;28;20229;-79
2022/05/09 00:52:44;;;;;;;;;;;11.20;63.60;;;;;;4871877;28;20228;-78
2022/05/09 00:55:30;;;;;;;;;;;11.30;63.50;;;;;;4927432;28;19913;-81
2022/05/09 00:58:08;;;;;;;;;;;11.20;63.70;;;;;;4973170;28;19960;-80
2022/05/09 01:00:33;;;;;;;;;;;11.10;64.10;;;;;;4991635;28;19996;-79
2022/05/09 01:03:01;;;;;;;;;;;11.10;63.80;;;;;;4997413;28;20379;-80
2022/05/09 01:05:29;;;;;;;;;;;11.10;64.10;;;;;;4995467;28;19957;-81
2022/05/09 01:07:55;;;;;;;;;;;11.10;63.80;;;;;;5000200;28;19913;-79
2022/05/09 01:10:23;;;;;;;;;;;11.00;64.20;;;;;;4978820;28;19924;-81
2022/05/09 01:12:49;;;;;;;;;;;10.90;64.50;;;;;;4999353;28;19918;-80
2022/05/09 01:15:16;;;;;;;;;;;10.90;64.60;;;;;;4997247;28;20261;-80
2022/05/09 01:17:41;;;;;;;;;;;11.00;64.80;;;;;;4980698;28;19914;-79
2022/05/09 01:20:08;;;;;;;;;;;11.00;64.60;;;;;;4997471;28;20287;-80
2022/05/09 01:22:35;;;;;;;;;;;11.00;64.10;;;;;;4999112;28;19933;-79
2022/05/09 01:25:03;;;;;;;;;;;11.00;64.10;;;;;;4976331;28;19917;-80
2022/05/09 01:27:30;;;;;;;;;;;11.00;64.30;;;;;;4978726;28;19925;-80
2022/05/09 01:30:09;;;;;;;;;;;11.00;64.70;;;;;;4987721;28;19914;-80
2022/05/09 01:33:04;;;;;;;;;;;11.10;63.70;;;;;;4996062;28;19926;-80
2022/05/09 01:35:42;;;;;;;;;;;11.10;63.20;;;;;;4960480;28;19948;-80
2022/05/09 01:38:16;;;;;;;;;;;11.20;63.30;;;;;;4994889;28;19937;-79
2022/05/09 01:40:42;;;;;;;;;;;11.10;63.30;;;;;;4993025;28;19918;-79
2022/05/09 01:43:07;;;;;;;;;;;11.10;63.30;;;;;;4996560;28;19968;-80
2022/05/09 01:45:33;;;;;;;;;;;11.10;63.40;;;;;;4989147;28;19917;-80
2022/05/09 01:50:42;;;;;;;;;;;11.00;63.50;;;;;;4989261;28;19925;-80
2022/05/09 01:53:08;;;;;;;;;;;11.10;63.70;;;;;;4976241;28;20541;-79
2022/05/09 01:55:34;;;;;;;;;;;11.00;63.50;;;;;;4990148;28;20009;-79
2022/05/09 01:57:59;;;;;;;;;;;11.00;63.50;;;;;;5001074;28;20001;-80
2022/05/09 02:00:25;;;;;;;;;;;11.00;63.50;;;;;;4997014;28;19941;-79
2022/05/09 02:02:50;;;;;;;;;;;11.00;63.80;;;;;;4969397;28;19922;-80
2022/05/09 02:05:16;;;;;;;;;;;10.90;63.80;;;;;;5007323;28;19917;-80
2022/05/09 02:07:41;;;;;;;;;;;10.80;64.00;;;;;;4984200;28;19984;-79
2022/05/09 02:10:07;;;;;;;;;;;10.80;63.60;;;;;;4981540;28;19964;-81
2022/05/09 02:12:32;;;;;;;;;;;10.80;64.10;;;;;;4977372;28;19918;-80
2022/05/09 02:14:58;;;;;;;;;;;10.80;64.40;;;;;;5006567;28;19913;-81
2022/05/09 02:17:23;;;;;;;;;;;10.70;64.50;;;;;;4999992;28;19925;-80
2022/05/09 02:19:49;;;;;;;;;;;10.80;64.10;;;;;;4988698;28;19914;-80
2022/05/09 02:22:14;;;;;;;;;;;10.80;64.50;;;;;;4999588;28;19921;-80
2022/05/09 02:24:40;;;;;;;;;;;10.80;64.60;;;;;;4985773;28;19968;-80
2022/05/09 02:27:07;;;;;;;;;;;10.70;64.90;;;;;;4997724;28;19952;-80
2022/05/09 02:29:32;;;;;;;;;;;10.70;65.70;;;;;;4991754;28;19944;-81
2022/05/09 02:31:59;;;;;;;;;;;10.60;66.20;;;;;;4973002;28;19933;-81
2022/05/09 02:34:24;;;;;;;;;;;10.40;66.70;;;;;;4989340;28;20515;-81
2022/05/09 02:36:50;;;;;;;;;;;10.30;67.50;;;;;;4978175;28;19929;-81
2022/05/09 02:39:15;;;;;;;;;;;10.40;67.60;;;;;;5002423;28;19981;-81
2022/05/09 02:41:41;;;;;;;;;;;10.30;67.10;;;;;;4993079;28;19914;-81
2022/05/09 02:44:07;;;;;;;;;;;10.20;66.80;;;;;;4984288;28;19925;-81
2022/05/09 02:46:33;;;;;;;;;;;10.30;67.20;;;;;;4988387;28;19913;-81
2022/05/09 02:48:59;;;;;;;;;;;10.30;67.60;;;;;;4977773;28;20372;-79
2022/05/09 02:51:28;;;;;;;;;;;10.30;67.50;;;;;;4973639;28;19926;-81
2022/05/09 02:53:57;;;;;;;;;;;10.30;67.40;;;;;;5001207;28;19983;-80
2022/05/09 02:56:23;;;;;;;;;;;10.20;67.60;;;;;;4982855;28;19961;-81
2022/05/09 02:58:48;;;;;;;;;;;10.10;67.10;;;;;;5011135;28;19937;-81
2022/05/09 03:01:14;;;;;;;;;;;10.20;67.30;;;;;;5002897;28;19910;-81
2022/05/09 03:06:23;;;;;;;;;;;10.20;67.10;;;;;;4997477;28;19977;-81
2022/05/09 03:08:49;;;;;;;;;;;10.30;67.50;;;;;;4984935;28;19913;-81
2022/05/09 03:11:14;;;;;;;;;;;10.30;67.10;;;;;;4998145;28;20567;-80
2022/05/09 03:13:39;;;;;;;;;;;10.30;66.80;;;;;;4983738;28;19921;-81
2022/05/09 03:16:05;;;;;;;;;;;10.20;67.10;;;;;;4986658;28;19937;-80
2022/05/09 03:18:31;;;;;;;;;;;10.20;67.50;;;;;;4997614;28;20000;-80
2022/05/09 03:20:57;;;;;;;;;;;10.10;67.40;;;;;;4982671;28;19917;-80
2022/05/09 03:23:22;;;;;;;;;;;10.10;67.50;;;;;;4991101;28;19929;-80
2022/05/09 03:25:48;;;;;;;;;;;10.20;67.10;;;;;;4989514;28;19984;-80
2022/05/09 03:28:16;;;;;;;;;;;10.20;67.10;;;;;;4985246;28;20127;-80
2022/05/09 03:30:42;;;;;;;;;;;10.20;67.30;;;;;;4992802;28;19941;-81
2022/05/09 03:33:08;;;;;;;;;;;10.10;67.50;;;;;;4994783;28;19922;-81
2022/05/09 03:35:34;;;;;;;;;;;10.10;68.10;;;;;;4982855;28;20008;-80
2022/05/09 03:38:00;;;;;;;;;;;10.10;68.20;;;;;;5002830;28;20260;-81
2022/05/09 03:40:25;;;;;;;;;;;10.00;68.30;;;;;;4979685;28;19913;-81
2022/05/09 03:42:51;;;;;;;;;;;10.10;68.60;;;;;;4983689;28;19917;-81
2022/05/09 03:45:16;;;;;;;;;;;10.00;68.60;;;;;;4991353;28;19929;-81
2022/05/09 03:47:42;;;;;;;;;;;10.10;68.20;;;;;;5003691;28;19939;-81
2022/05/09 03:50:09;;;;;;;;;;;10.10;67.90;;;;;;4980165;28;20008;-81
2022/05/09 03:52:34;;;;;;;;;;;10.10;68.00;;;;;;4993261;28;20012;-81
2022/05/09 03:55:00;;;;;;;;;;;10.00;68.20;;;;;;4991324;28;19914;-81
2022/05/09 03:57:25;;;;;;;;;;;10.00;68.30;;;;;;4976895;28;19918;-81
2022/05/09 03:59:51;;;;;;;;;;;10.00;68.50;;;;;;4974879;28;19969;-81
2022/05/09 04:02:17;;;;;;;;;;;10.00;68.80;;;;;;4984861;28;20004;-80
2022/05/09 04:04:42;;;;;;;;;;;9.90;69.10;;;;;;4980550;28;19937;-81
2022/05/09 04:07:08;;;;;;;;;;;9.90;69.70;;;;;;4994576;28;20415;-81
2022/05/09 04:09:33;;;;;;;;;;;10.00;68.70;;;;;;4998173;28;19914;-81
2022/05/09 04:11:59;;;;;;;;;;;10.00;68.90;;;;;;4992832;28;19918;-81
2022/05/09 04:17:10;;;;;;;;;;;10.00;68.90;;;;;;4982225;28;19914;-81
2022/05/09 04:19:36;;;;;;;;;;;10.00;69.00;;;;;;5000432;28;20450;-81
2022/05/09 04:22:02;;;;;;;;;;;10.00;69.60;;;;;;4998486;28;20008;-81
2022/05/09 04:24:29;;;;;;;;;;;10.00;69.80;;;;;;4999461;28;19992;-81
2022/05/09 04:26:55;;;;;;;;;;;10.10;68.80;;;;;;4995830;28;20436;-81
2022/05/09 04:29:21;;;;;;;;;;;10.20;68.30;;;;;;4993486;28;19918;-81
2022/05/09 04:31:46;;;;;;;;;;;10.30;67.80;;;;;;4985815;28;19928;-81
2022/05/09 04:34:12;;;;;;;;;;;10.30;68.30;;;;;;4997850;28;20342;-81
2022/05/09 04:36:39;;;;;;;;;;;10.40;67.80;;;;;;5007755;28;19938;-80
2022/05/09 04:39:05;;;;;;;;;;;10.40;68.10;;;;;;4998638;28;19921;-81
2022/05/09 04:41:32;;;;;;;;;;;10.40;68.20;;;;;;4987626;28;20312;-81
2022/05/09 04:43:58;;;;;;;;;;;10.40;68.30;;;;;;4988135;28;20082;-80
2022/05/09 04:46:23;;;;;;;;;;;10.40;68.40;;;;;;4985876;28;20006;-80
2022/05/09 04:48:49;;;;;;;;;;;10.40;68.30;;;;;;4991977;28;19914;-80
2022/05/09 04:51:15;;;;;;;;;;;10.40;68.10;;;;;;4987836;28;19913;-81
2022/05/09 04:53:41;;;;;;;;;;;10.50;68.20;;;;;;5005888;28;19918;-80
2022/05/09 04:56:06;;;;;;;;;;;10.60;67.40;;;;;;5009062;28;19920;-80
2022/05/09 04:58:32;;;;;;;;;;;10.70;67.30;;;;;;5022404;28;19980;-81
2022/05/09 05:00:58;;;;;;;;;;;10.70;67.00;;;;;;4998749;28;19923;-80
2022/05/09 05:03:23;;;;;;;;;;;10.70;68.00;;;;;;4990289;28;19984;-79
2022/05/09 05:05:52;;;;;;;;;;;10.70;68.20;;;;;;4988410;28;20546;-80
2022/05/09 05:08:17;;;;;;;;;;;11.00;67.60;;;;;;4983263;28;19988;-81
2022/05/09 05:10:43;;;;;;;;;;;11.10;67.00;;;;;;4979467;28;20266;-81
2022/05/09 05:13:08;;;;;;;;;;;11.30;67.00;;;;;;4991330;28;20018;-81
2022/05/09 05:15:34;;;;;;;;;;;11.40;66.90;;;;;;4997881;28;19922;-81
2022/05/09 05:18:00;;;;;;;;;;;11.50;66.40;;;;;;4980635;28;21820;-84
2022/05/09 05:20:26;;;;;;;;;;;11.60;66.70;;;;;;4973787;28;20205;-84
2022/05/09 05:23:03;;;;;;;;;;;11.70;65.10;;;;;;4994040;28;19982;-84
2022/05/09 05:25:52;;;;;;;;;;;11.70;65.00;;;;;;4997279;28;19960;-84
2022/05/09 05:28:17;;;;;;;;;;;11.70;64.80;;;;;;4960497;28;19922;-82
2022/05/09 05:30:43;;;;;;;;;;;12.00;64.80;;;;;;4971829;28;19942;-82
2022/05/09 05:33:09;;;;;;;;;;;12.00;64.40;;;;;;4979984;28;19914;-82
2022/05/09 05:35:34;;;;;;;;;;;12.10;64.90;;;;;;4961104;28;19922;-83
2022/05/09 05:37:59;;;;;;;;;;;12.20;65.10;;;;;;4973400;28;19922;-82
2022/05/09 05:40:25;;;;;;;;;;;12.40;64.80;;;;;;4957293;28;19921;-79
2022/05/09 05:42:52;;;;;;;;;;;12.70;63.80;;;;;;4968203;28;19929;-80
2022/05/09 05:45:19;;;;;;;;;;;12.70;62.80;;;;;;4979910;28;19918;-80
2022/05/09 05:47:46;;;;;;;;;;;12.60;63.10;;;;;;4978186;28;19930;-80
2022/05/09 05:50:12;;;;;;;;;;;12.80;63.20;;;;;;4979802;28;19917;-80
2022/05/09 05:52:37;;;;;;;;;;;12.70;62.90;;;;;;4965996;28;19918;-83
2022/05/09 05:55:04;;;;;;;;;;;12.70;62.50;;;;;;4984724;28;19914;-80
2022/05/09 05:57:30;;;;;;;;;;;12.80;62.40;;;;;;4978295;28;20372;-80
2022/05/09 06:00:00;;;;;;;;;;;12.70;63.20;;;;;;4952830;28;19914;-80
2022/05/09 06:02:26;;;;;;;;;;;12.80;63.50;;;;;;4961382;28;19925;-80
2022/05/09 06:07:23;;;;;;;;;;;13.50;62.50;;;;;;5006677;28;19932;-81
2022/05/09 06:09:49;;;;;;;;;;;13.90;61.10;;;;;;4990911;28;19919;-81
2022/05/09 06:12:16;;;;;;;;;;;14.10;60.00;;;;;;5016419;28;19957;-80
2022/05/09 06:14:42;;;;;;;;;;;14.70;58.80;;;;;;5035045;28;19991;-80
2022/05/09 06:17:08;;;;;;;;;;;15.10;57.50;;;;;;5004228;28;20012;-81
2022/05/09 06:19:34;;;;;;;;;;;15.50;55.90;;;;;;4989017;28;19921;-81
2022/05/09 06:22:00;;;;;;;;;;;15.50;55.20;;;;;;4998781;28;19918;-81
2022/05/09 06:24:25;;;;;;;;;;;15.10;56.30;;;;;;4995130;28;19918;-81
2022/05/09 06:26:51;;;;;;;;;;;14.70;57.80;;;;;;5001550;28;19914;-81
2022/05/09 06:29:18;;;;;;;;;;;14.50;58.40;;;;;;4992241;28;19913;-81
2022/05/09 06:31:44;;;;;;;;;;;14.60;58.90;;;;;;4993603;28;19940;-80
2022/05/09 06:34:11;;;;;;;;;;;14.60;58.80;;;;;;4992617;28;19968;-81
2022/05/09 06:36:37;;;;;;;;;;;14.40;58.90;;;;;;4993662;28;19914;-81
2022/05/09 06:39:03;;;;;;;;;;;14.10;60.30;;;;;;4994395;28;20056;-80
2022/05/09 06:41:28;;;;;;;;;;;13.90;61.30;;;;;;4990390;28;20004;-80
2022/05/09 06:43:54;;;;;;;;;;;13.70;61.50;;;;;;4994976;28;20372;-81
2022/05/09 06:46:19;;;;;;;;;;;13.60;63.20;;;;;;4986955;28;19917;-83
2022/05/09 06:48:45;;;;;;;;;;;13.50;63.00;;;;;;4989320;28;19914;-84
2022/05/09 06:51:11;;;;;;;;;;;13.50;63.90;;;;;;4993794;28;19922;-83
2022/05/09 06:53:36;;;;;;;;;;;13.50;64.30;;;;;;4984985;28;19936;-83
2022/05/09 06:56:02;;;;;;;;;;;13.70;63.70;;;;;;4989505;28;19913;-82
2022/05/09 06:58:27;;;;;;;;;;;13.80;63.40;;;;;;4988376;28;20008;-82
2022/05/09 07:00:53;;;;;;;;;;;13.60;62.60;;;;;;4987511;28;19960;-85
2022/05/09 07:03:19;;;;;;;;;;;13.60;63.10;;;;;;4983300;28;19918;-83
2022/05/09 07:05:45;;;;;;;;;;;13.70;64.00;;;;;;5004163;28;19921;-83
2022/05/09 07:08:12;;;;;;;;;;;13.80;63.40;;;;;;5039662;28;20393;-83
2022/05/09 07:10:38;;;;;;;;;;;13.90;63.60;;;;;;5038399;28;19924;-82
2022/05/09 07:13:04;;;;;;;;;;;14.10;62.50;;;;;;5036574;28;20388;-83
2022/05/09 07:15:30;;;;;;;;;;;14.10;62.80;;;;;;5010132;28;20022;-84
2022/05/09 07:17:58;;;;;;;;;;;14.10;61.20;;;;;;5027039;28;19997;-83
2022/05/09 07:20:27;;;;;;;;;;;14.20;61.30;;;;;;5028136;28;19914;-84
2022/05/09 07:22:54;;;;;;;;;;;14.20;61.90;;;;;;5023746;28;19968;-80
2022/05/09 07:25:20;;;;;;;;;;;14.30;62.70;;;;;;5009201;28;20012;-81
2022/05/09 07:27:46;;;;;;;;;;;14.30;62.10;;;;;;5008525;28;20067;-81
2022/05/09 07:30:12;;;;;;;;;;;14.40;62.10;;;;;;5009421;28;19914;-80
2022/05/09 07:32:38;;;;;;;;;;;14.60;61.60;;;;;;5020782;28;19917;-82
2022/05/09 07:35:05;;;;;;;;;;;14.60;62.00;;;;;;5010133;28;19914;-82
2022/05/09 07:37:30;;;;;;;;;;;14.70;62.80;;;;;;5029041;28;20365;-81
2022/05/09 07:39:56;;;;;;;;;;;14.80;62.70;;;;;;5012835;28;19948;-82
2022/05/09 07:42:21;;;;;;;;;;;14.90;62.20;;;;;;5011218;28;19976;-82
2022/05/09 07:44:47;;;;;;;;;;;15.00;62.20;;;;;;5028447;28;19917;-81
2022/05/09 07:47:13;;;;;;;;;;;15.10;61.40;;;;;;5026431;28;19925;-81
2022/05/09 07:49:38;;;;;;;;;;;15.10;61.90;;;;;;5013845;28;20229;-82
2022/05/09 07:52:05;;;;;;;;;;;15.20;62.30;;;;;;5046509;28;19922;-81
2022/05/09 07:54:31;;;;;;;;;;;15.40;61.50;;;;;;5029940;28;19959;-81
2022/05/09 07:56:57;;;;;;;;;;;15.50;62.20;;;;;;5011270;28;19913;-82
2022/05/09 07:59:22;;;;;;;;;;;15.60;60.80;;;;;;5003784;28;19949;-82
2022/05/09 08:01:48;;;;;;;;;;;15.70;60.70;;;;;;5023792;28;19917;-82
2022/05/09 08:04:14;;;;;;;;;;;16.00;60.10;;;;;;5021322;28;20950;-83
2022/05/09 08:06:39;;;;;;;;;;;16.10;62.30;;;;;;5010789;28;19991;-81
2022/05/09 08:09:05;;;;;;;;;;;16.20;61.50;;;;;;5011738;28;20373;-83
2022/05/09 08:11:31;;;;;;;;;;;16.40;61.00;;;;;;5028470;28;19920;-82
2022/05/09 08:13:56;;;;;;;;;;;16.30;60.00;;;;;;5006703;28;20060;-81
2022/05/09 08:16:25;;;;;;;;;;;16.40;59.60;;;;;;5012010;28;19921;-82
2022/05/09 08:18:50;;;;;;;;;;;16.40;59.50;;;;;;5022785;28;19925;-81
2022/05/09 08:21:16;;;;;;;;;;;16.30;59.70;;;;;;5007647;28;19928;-82
2022/05/09 08:23:41;;;;;;;;;;;16.30;60.00;;;;;;5002757;28;19979;-81
2022/05/09 08:26:07;;;;;;;;;;;16.50;60.90;;;;;;5006079;28;19932;-80
2022/05/09 08:28:33;;;;;;;;;;;16.60;60.10;;;;;;5021261;28;19918;-81
2022/05/09 08:30:58;;;;;;;;;;;16.70;59.80;;;;;;5000733;28;20302;-81
2022/05/09 08:33:25;;;;;;;;;;;16.80;59.50;;;;;;5021704;28;20013;-81
2022/05/09 08:35:51;;;;;;;;;;;16.80;59.20;;;;;;5022437;28;21425;-81
2022/05/09 08:38:18;;;;;;;;;;;16.90;59.20;;;;;;5025193;28;19917;-82
2022/05/09 08:40:46;;;;;;;;;;;16.90;58.80;;;;;;5017693;28;20024;-82
2022/05/09 08:43:18;;;;;;;;;;;17.00;58.90;;;;;;5026987;28;20011;-81
2022/05/09 08:45:48;;;;;;;;;;;16.90;61.60;;;;;;5007220;28;19925;-82
2022/05/09 08:48:32;;;;;;;;;;;17.10;60.40;;;;;;5014816;28;19913;-81
2022/05/09 08:51:09;;;;;;;;;;;17.20;61.00;;;;;;5024400;28;20011;-80
2022/05/09 08:53:36;;;;;;;;;;;17.50;60.40;;;;;;5038353;28;19921;-84
2022/05/09 08:56:02;;;;;;;;;;;17.50;60.10;;;;;;5008048;28;19922;-82
2022/05/09 08:58:40;;;;;;;;;;;17.70;61.20;;;;;;5009557;28;19929;-86
2022/05/09 09:01:13;;;;;;;;;;;18.00;59.60;;;;;;5006640;28;19917;-86
2022/05/09 09:03:43;;;;;;;;;;;17.80;58.90;;;;;;5021259;28;20424;-86
2022/05/09 09:06:16;;;;;;;;;;;17.80;59.10;;;;;;5020933;28;19960;-85
2022/05/09 09:08:55;;;;;;;;;;;17.80;58.90;;;;;;5009732;28;19923;-83
2022/05/09 09:11:44;;;;;;;;;;;17.80;60.10;;;;;;5012145;28;20024;-84
2022/05/09 09:14:28;;;;;;;;;;;17.90;59.50;;;;;;5027676;28;19941;-84
2022/05/09 09:17:15;;;;;;;;;;;17.90;59.60;;;;;;5002885;28;19914;-84
2022/05/09 09:19:56;;;;;;;;;;;18.00;59.50;;;;;;5017127;28;20395;-83
2022/05/09 09:22:44;;;;;;;;;;;18.10;60.40;;;;;;5027128;28;19988;-83
2022/05/09 09:25:23;;;;;;;;;;;18.20;59.50;;;;;;5013588;28;19945;-83
2022/05/09 09:27:53;;;;;;;;;;;18.50;57.30;;;;;;5029410;28;20064;-84
2022/05/09 09:30:21;;;;;;;;;;;18.40;58.90;;;;;;5024472;28;19927;-84
2022/05/09 09:32:57;;;;;;;;;;;18.30;59.70;;;;;;5030506;28;19920;-82
2022/05/09 09:35:24;;;;;;;;;;;18.50;62.20;;;;;;5037728;28;19924;-82
2022/05/09 09:37:52;;;;;;;;;;;18.70;60.40;;;;;;5019588;28;19929;-81
2022/05/09 09:40:18;;;;;;;;;;;18.80;58.80;;;;;;5018120;28;19940;-82
2022/05/09 09:42:44;;;;;;;;;;;18.90;59.50;;;;;;5031642;28;19922;-81
2022/05/09 09:45:14;;;;;;;;;;;18.90;58.40;;;;;;5016396;28;19921;-81
2022/05/09 09:47:40;;;;;;;;;;;18.80;59.00;;;;;;5005751;28;19936;-82
2022/05/09 09:50:22;;;;;;;;;;;19.10;62.30;;;;;;5013477;28;19913;-82
2022/05/09 09:52:48;;;;;;;;;;;19.20;57.30;;;;;;5008136;28;20012;-82
2022/05/09 09:55:23;;;;;;;;;;;19.10;57.10;;;;;;5031535;28;19953;-82
2022/05/09 09:57:48;;;;;;;;;;;19.20;56.50;;;;;;5012527;28;19980;-81
2022/05/09 10:00:19;;;;;;;;;;;19.20;56.30;;;;;;5033955;28;19910;-82
2022/05/09 10:02:45;;;;;;;;;;;19.40;56.00;;;;;;5007863;28;20392;-82
2022/05/09 10:05:12;;;;;;;;;;;19.40;55.80;;;;;;5016611;28;19921;-82
2022/05/09 10:07:43;;;;;;;;;;;19.50;55.50;;;;;;5013533;28;19980;-84
2022/05/09 10:10:12;;;;;;;;;;;19.60;55.40;;;;;;5014280;28;19922;-81
2022/05/09 10:12:44;;;;;;;;;;;19.40;55.50;;;;;;4976626;28;19913;-80
2022/05/09 10:15:23;;;;;;;;;;;19.20;56.80;;;;;;4960984;28;19913;-79
2022/05/09 10:17:49;;;;;;;;;;;19.40;55.60;;;;;;4981464;28;19920;-79
2022/05/09 10:20:33;;;;;;;;;;;19.50;55.90;;;;;;4971979;28;20129;-80
2022/05/09 10:26:21;;;;;;;;;;;19.40;58.20;;;;;;4965848;28;19923;-80
2022/05/09 10:28:53;;;;;;;;;;;19.60;57.80;;;;;;4970482;28;20099;-81
2022/05/09 10:31:27;;;;;;;;;;;19.70;57.00;;;;;;4972333;28;20210;-78
2022/05/09 10:33:59;;;;;;;;;;;19.90;56.30;;;;;;4970279;28;19949;-78
2022/05/09 10:36:28;;;;;;;;;;;19.90;56.60;;;;;;4967976;28;20156;-78
2022/05/09 10:39:09;;;;;;;;;;;20.20;56.20;;;;;;5044721;28;20089;-78
2022/05/09 10:41:35;;;;;;;;;;;20.20;55.40;;;;;;5017511;28;20031;-80
2022/05/09 10:44:05;;;;;;;;;;;20.20;55.80;;;;;;5027881;28;20420;-80
2022/05/09 10:46:48;;;;;;;;;;;20.40;56.00;;;;;;5030880;28;19921;-80
2022/05/09 10:49:23;;;;;;;;;;;20.70;55.50;;;;;;5014740;28;19909;-79
2022/05/09 10:52:07;;;;;;;;;;;21.10;54.10;;;;;;5020688;28;19917;-80
2022/05/09 10:54:42;;;;;;;;;;;21.10;53.90;;;;;;5007568;28;20296;-79
2022/05/09 10:57:10;;;;;;;;;;;21.20;54.10;;;;;;4999960;28;20859;-79
2022/05/09 10:59:40;;;;;;;;;;;21.10;54.00;;;;;;5007239;28;19931;-79
2022/05/09 11:02:07;;;;;;;;;;;21.10;55.30;;;;;;5008127;28;20380;-79
2022/05/09 11:04:33;;;;;;;;;;;20.90;53.60;;;;;;5008550;28;19979;-80
2022/05/09 11:07:17;;;;;;;;;;;20.70;54.40;;;;;;5020281;28;19918;-78
2022/05/09 11:09:55;;;;;;;;;;;20.90;55.90;;;;;;5022331;28;19913;-79
2022/05/09 11:12:30;;;;;;;;;;;20.90;55.10;;;;;;5009105;28;19921;-77
2022/05/09 11:15:13;;;;;;;;;;;20.80;54.10;;;;;;5010694;28;20364;-79
2022/05/09 11:17:45;;;;;;;;;;;20.80;54.20;;;;;;5019395;28;19952;-80
2022/05/09 11:20:21;;;;;;;;;;;20.90;54.00;;;;;;5008132;28;19917;-80
2022/05/09 11:23:07;;;;;;;;;;;21.00;54.20;;;;;;5008877;28;19926;-79
2022/05/09 11:25:42;;;;;;;;;;;21.10;54.30;;;;;;5000968;28;19929;-80
2022/05/09 11:28:26;;;;;;;;;;;21.40;53.00;;;;;;5023376;28;19935;-78
2022/05/09 11:30:58;;;;;;;;;;;21.70;52.10;;;;;;5045253;28;19913;-78
2022/05/09 11:33:24;;;;;;;;;;;22.00;52.40;;;;;;5030505;28;19913;-80
2022/05/09 11:35:52;;;;;;;;;;;22.10;51.80;;;;;;5036787;28;19966;-80
2022/05/09 11:38:24;;;;;;;;;;;22.00;50.60;;;;;;5043129;28;19946;-80
2022/05/09 11:40:56;;;;;;;;;;;22.10;49.40;;;;;;5032632;28;19913;-80
2022/05/09 11:43:40;;;;;;;;;;;22.10;50.70;;;;;;5005082;28;19922;-80
2022/05/09 11:46:27;;;;;;;;;;;22.20;49.60;;;;;;5012264;28;20396;-79
2022/05/09 11:49:02;;;;;;;;;;;22.30;50.40;;;;;;5024515;28;19918;-80
2022/05/09 11:51:34;;;;;;;;;;;22.50;49.70;;;;;;5016944;28;19952;-79
2022/05/09 11:54:01;;;;;;;;;;;22.50;48.80;;;;;;5013775;28;19943;-79
2022/05/09 11:56:29;;;;;;;;;;;22.40;49.70;;;;;;5012467;28;20283;-79
2022/05/09 11:58:55;;;;;;;;;;;22.20;49.00;;;;;;5009179;28;19932;-79
2022/05/09 12:01:39;;;;;;;;;;;22.20;49.40;;;;;;5025767;28;19921;-79
2022/05/09 12:04:06;;;;;;;;;;;21.90;48.70;;;;;;5017833;28;20003;-80
2022/05/09 12:06:36;;;;;;;;;;;22.00;49.70;;;;;;5012211;28;20002;-78
2022/05/09 12:09:08;;;;;;;;;;;22.00;49.20;;;;;;5001955;28;19913;-79
2022/05/09 12:11:46;;;;;;;;;;;22.10;49.50;;;;;;5026916;28;19921;-79
2022/05/09 12:14:31;;;;;;;;;;;22.10;49.40;;;;;;5023003;28;20356;-79
2022/05/09 12:16:56;;;;;;;;;;;22.20;49.00;;;;;;5021239;28;20394;-79
2022/05/09 12:19:25;;;;;;;;;;;22.10;50.20;;;;;;5019776;28;19913;-78
2022/05/09 12:22:09;;;;;;;;;;;22.10;49.50;;;;;;5015080;28;19914;-80
2022/05/09 12:24:35;;;;;;;;;;;22.10;49.90;;;;;;5013434;28;19934;-79
2022/05/09 12:27:20;;;;;;;;;;;22.30;50.80;;;;;;5027395;28;20293;-79
2022/05/09 12:29:47;;;;;;;;;;;22.50;49.10;;;;;;5012265;28;19914;-78
2022/05/09 12:32:13;;;;;;;;;;;22.60;48.50;;;;;;5028473;28;19999;-80
2022/05/09 12:34:41;;;;;;;;;;;22.60;48.50;;;;;;5033639;28;20386;-80
2022/05/09 12:37:07;;;;;;;;;;;22.60;46.40;;;;;;5036361;28;19948;-81
2022/05/09 12:39:42;;;;;;;;;;;22.60;46.00;;;;;;5050149;28;19984;-81
2022/05/09 12:42:20;;;;;;;;;;;22.90;47.60;;;;;;5005799;28;20009;-81
2022/05/09 12:44:48;;;;;;;;;;;23.00;48.70;;;;;;5018722;28;19913;-81
2022/05/09 12:47:16;;;;;;;;;;;23.30;47.80;;;;;;5039848;28;19960;-81
2022/05/09 12:49:43;;;;;;;;;;;23.20;48.20;;;;;;5038363;28;19909;-80
2022/05/09 12:52:10;;;;;;;;;;;23.20;48.60;;;;;;5034632;28;20371;-81
2022/05/09 12:54:39;;;;;;;;;;;23.10;48.20;;;;;;5040226;28;19914;-81
2022/05/09 12:57:05;;;;;;;;;;;23.00;47.10;;;;;;5002241;28;19913;-77
2022/05/09 12:59:48;;;;;;;;;;;23.10;46.90;;;;;;4964043;28;19913;-77
2022/05/09 13:02:21;;;;;;;;;;;23.00;46.30;;;;;;4957065;28;20255;-77
2022/05/09 13:04:47;;;;;;;;;;;22.90;49.00;;;;;;4965650;28;19913;-77
2022/05/09 13:07:13;;;;;;;;;;;22.80;48.70;;;;;;4985827;28;20431;-77
2022/05/09 13:09:50;;;;;;;;;;;22.70;47.10;;;;;;4988181;28;19921;-77
2022/05/09 13:12:25;;;;;;;;;;;22.80;47.80;;;;;;4982758;28;19909;-77
2022/05/09 13:14:55;;;;;;;;;;;23.00;47.60;;;;;;4972522;28;20060;-76
2022/05/09 13:17:41;;;;;;;;;;;23.10;47.30;;;;;;4976695;28;19913;-77
2022/05/09 13:20:09;;;;;;;;;;;23.30;46.80;;;;;;4985457;28;19910;-78
2022/05/09 13:22:46;;;;;;;;;;;23.30;48.30;;;;;;4999340;28;20523;-79
2022/05/09 13:25:29;;;;;;;;;;;23.50;47.80;;;;;;4997375;28;19918;-77
2022/05/09 13:27:56;;;;;;;;;;;23.60;46.20;;;;;;4971648;28;20090;-78
2022/05/09 13:30:22;;;;;;;;;;;23.50;44.60;;;;;;4998391;28;20320;-79
2022/05/09 13:32:55;;;;;;;;;;;23.30;45.30;;;;;;5019444;28;20087;-79
2022/05/09 13:35:28;;;;;;;;;;;23.10;44.50;;;;;;4988580;28;20419;-79
2022/05/09 13:37:54;;;;;;;;;;;23.10;46.50;;;;;;4983117;28;20118;-81
2022/05/09 13:40:21;;;;;;;;;;;23.10;46.70;;;;;;4981271;28;19921;-79
2022/05/09 13:42:48;;;;;;;;;;;23.10;47.40;;;;;;4985021;28;19909;-79
2022/05/09 13:45:13;;;;;;;;;;;23.40;45.00;;;;;;4982093;28;19917;-79
2022/05/09 13:47:40;;;;;;;;;;;23.60;42.80;;;;;;4998278;28;19924;-81
2022/05/09 13:50:07;;;;;;;;;;;24.10;42.80;;;;;;4979375;28;20443;-80
2022/05/09 13:52:35;;;;;;;;;;;24.20;42.50;;;;;;4959555;28;20246;-82
2022/05/09 13:55:05;;;;;;;;;;;24.00;42.70;;;;;;4975005;28;19979;-82
2022/05/09 13:57:35;;;;;;;;;;;23.90;43.10;;;;;;4971307;28;19909;-82
2022/05/09 14:00:08;;;;;;;;;;;23.80;42.40;;;;;;4987145;28;19913;-81
2022/05/09 14:02:35;;;;;;;;;;;23.60;42.30;;;;;;4991074;28;19913;-83
2022/05/09 14:05:00;;;;;;;;;;;23.50;43.80;;;;;;5024573;28;20365;-82
2022/05/09 14:07:38;;;;;;;;;;;23.50;44.30;;;;;;5008870;28;20016;-82
2022/05/09 14:10:12;;;;;;;;;;;23.20;44.70;;;;;;5027135;28;19913;-81
2022/05/09 14:12:37;;;;;;;;;;;23.20;43.90;;;;;;4967149;28;20248;-81
2022/05/09 14:15:18;;;;;;;;;;;23.40;42.70;;;;;;4981951;28;19909;-81
2022/05/09 14:17:47;;;;;;;;;;;23.60;42.80;;;;;;4965089;28;19909;-82
2022/05/09 14:20:22;;;;;;;;;;;24.00;42.00;;;;;;4985832;28;20122;-86
2022/05/09 14:22:48;;;;;;;;;;;24.50;41.70;;;;;;4988035;28;19913;-82
2022/05/09 14:30:43;;;;;;;;;;;24.70;40.60;;;;;;4952765;28;19964;-82
2022/05/09 14:33:29;;;;;;;;;;;24.60;41.00;;;;;;4989036;28;19945;-83
2022/05/09 14:35:56;;;;;;;;;;;24.60;40.60;;;;;;4969256;28;19918;-82
2022/05/09 14:38:27;;;;;;;;;;;24.50;41.20;;;;;;4968907;28;19917;-84
2022/05/09 14:41:05;;;;;;;;;;;24.40;41.30;;;;;;4983933;28;20308;-84
2022/05/09 14:43:31;;;;;;;;;;;24.40;40.60;;;;;;4984407;28;19913;-84
2022/05/09 14:46:05;;;;;;;;;;;24.40;40.50;;;;;;4969953;28;20028;-84